Time;durP1;ratioP1;P1;durP2;ratioP2;P2;SDS_P1;SDS_P2;PMS_P1;PMS_P2;Temp;Humidity;BMP_temperature;BMP_pressure;BME280_temperature;BME280_humidity;BME280_pressure;Samples;Min_cycle;Max_cycle;Signal;HPM_P1;HPM_P2
2022/06/18 00:01:59;;;;;;;4.07;2.07;;;13.40;99.90;12.80;100784;;;;599495;235;24106;-81
2022/06/18 00:04:28;;;;;;;2.77;2.10;;;13.40;99.90;12.80;100785;;;;599612;237;24067;-81
2022/06/18 00:07:01;;;;;;;3.47;2.00;;;13.40;99.90;12.70;100788;;;;599382;235;24055;-79
2022/06/18 00:09:33;;;;;;;2.20;1.97;;;13.40;99.90;12.70;100786;;;;600745;235;24036;-80
2022/06/18 00:14:52;;;;;;;1.60;1.50;;;13.40;99.90;12.70;100768;;;;590128;239;24061;-82
2022/06/18 00:17:20;;;;;;;2.53;2.30;;;13.30;99.90;12.70;100769;;;;584640;239;34963;-79
2022/06/18 00:19:49;;;;;;;2.23;2.03;;;13.30;99.90;12.70;100768;;;;590373;239;24073;-78
2022/06/18 00:22:17;;;;;;;7.50;2.00;;;13.30;99.90;12.70;100775;;;;590212;239;25134;-81
2022/06/18 00:24:46;;;;;;;1.90;1.80;;;13.30;99.90;12.70;100759;;;;599963;235;25137;-80
2022/06/18 00:27:14;;;;;;;2.50;1.83;;;13.30;99.90;12.60;100765;;;;590548;239;24048;-80
2022/06/18 00:29:42;;;;;;;1.87;1.77;;;13.30;99.90;12.70;100773;;;;590293;239;24107;-82
2022/06/18 00:32:12;;;;;;;2.83;1.87;;;13.30;99.90;12.70;100768;;;;587371;239;24115;-84
2022/06/18 00:34:40;;;;;;;3.03;1.70;;;13.30;99.90;12.60;100771;;;;592601;238;24071;-80
2022/06/18 00:37:09;;;;;;;2.97;1.90;;;13.30;99.90;12.60;100769;;;;592213;239;24097;-81
2022/06/18 00:39:37;;;;;;;1.57;1.47;;;13.30;99.90;12.60;100758;;;;591788;239;24034;-83
2022/06/18 00:42:05;;;;;;;1.60;1.50;;;13.30;99.90;12.60;100762;;;;591739;239;24079;-82
2022/06/18 00:44:32;;;;;;;1.50;1.40;;;13.10;99.90;12.60;100756;;;;592064;239;24002;-82
2022/06/18 00:47:09;;;;;;;1.43;1.33;;;13.30;99.90;12.70;100756;;;;592126;239;24058;-80
2022/06/18 00:50:03;;;;;;;2.27;1.63;;;13.30;99.90;12.70;100750;;;;595780;237;31749;-81
2022/06/18 00:52:40;;;;;;;2.17;1.60;;;13.40;99.90;12.80;100753;;;;606494;236;24027;-83
2022/06/18 00:55:28;;;;;;;1.60;1.50;;;13.40;99.90;12.90;100764;;;;595343;240;25536;-82
2022/06/18 00:58:06;;;;;;;1.60;1.47;;;13.50;99.90;12.90;100756;;;;586314;242;24051;-86
2022/06/18 01:00:45;;;;;;;2.13;1.53;;;13.60;99.90;13.00;100760;;;;586216;242;24067;-81
2022/06/18 01:03:31;;;;;;;1.50;1.27;;;13.60;99.90;13.00;100753;;;;595940;240;24044;-81
2022/06/18 01:06:13;;;;;;;2.97;1.43;;;13.70;99.90;13.00;100759;;;;586633;242;24125;-81
2022/06/18 01:08:45;;;;;;;1.52;1.42;;;13.70;99.90;13.10;100757;;;;580714;242;35103;-83
2022/06/18 01:11:09;;;;;;;1.90;1.40;;;13.70;99.90;13.10;100753;;;;586160;241;24078;-88
2022/06/18 01:13:38;;;;;;;1.80;1.20;;;13.80;99.90;13.10;100744;;;;594213;240;24092;-86
2022/06/18 01:16:06;;;;;;;5.83;1.33;;;13.80;99.90;13.20;100737;;;;596966;237;24091;-87
2022/06/18 01:18:35;;;;;;;1.10;1.10;;;13.90;99.90;13.30;100736;;;;585535;242;24081;-87
2022/06/18 01:21:24;;;;;;;1.20;1.10;;;13.90;99.90;13.30;100737;;;;585799;241;24030;-85
2022/06/18 01:24:10;;;;;;;1.37;1.27;;;13.90;99.90;13.40;100742;;;;597555;237;24033;-84
2022/06/18 01:26:41;;;;;;;3.63;1.33;;;14.00;99.90;13.40;100739;;;;586001;242;24192;-85
2022/06/18 01:29:13;;;;;;;2.73;1.10;;;14.10;99.90;13.40;100739;;;;585771;242;24057;-84
2022/06/18 01:31:38;;;;;;;1.40;1.30;;;14.10;99.90;13.50;100732;;;;585962;241;24101;-81
2022/06/18 01:34:07;;;;;;;2.33;1.10;;;14.00;99.90;13.50;100728;;;;594810;239;24006;-83
2022/06/18 01:36:35;;;;;;;1.27;1.20;;;14.20;99.90;13.60;100722;;;;596254;237;24033;-81
2022/06/18 01:39:15;;;;;;;1.33;1.20;;;14.20;99.90;13.60;100720;;;;585611;241;24083;-83
2022/06/18 01:41:50;;;;;;;1.70;1.40;;;14.30;99.90;13.60;100713;;;;594415;239;24014;-82
2022/06/18 01:44:21;;;;;;;1.60;1.50;;;14.30;99.90;13.70;100716;;;;603344;236;24142;-81
2022/06/18 01:46:49;;;;;;;1.50;1.40;;;14.30;99.90;13.70;100721;;;;589034;241;24248;-83
2022/06/18 01:49:17;;;;;;;2.13;1.50;;;14.30;99.90;13.70;100716;;;;593949;241;24020;-83
2022/06/18 01:51:47;;;;;;;1.37;1.37;;;14.40;99.90;13.70;100716;;;;582631;243;24081;-83
2022/06/18 01:54:13;;;;;;;1.50;1.40;;;14.40;99.90;13.80;100713;;;;582956;243;24065;-83
2022/06/18 01:56:43;;;;;;;1.37;1.27;;;14.40;99.90;13.80;100715;;;;594520;239;24052;-82
2022/06/18 01:59:16;;;;;;;0.93;0.90;;;14.40;99.90;13.80;100711;;;;591434;239;24012;-81
2022/06/18 02:01:44;;;;;;;1.20;1.20;;;14.50;99.90;13.90;100711;;;;591587;239;24050;-82
2022/06/18 02:04:12;;;;;;;1.20;1.20;;;14.50;99.90;14.00;100698;;;;591495;239;23993;-82
2022/06/18 02:06:45;;;;;;;1.30;1.20;;;14.60;99.90;14.00;100697;;;;591562;239;24081;-82
2022/06/18 02:09:14;;;;;;;1.33;1.23;;;14.70;99.90;14.10;100692;;;;591207;239;23999;-81
2022/06/18 02:11:42;;;;;;;1.47;1.30;;;14.70;99.90;14.20;100678;;;;591009;239;24015;-81
2022/06/18 02:14:12;;;;;;;1.23;1.13;;;14.70;99.90;14.20;100678;;;;592091;239;23990;-81
2022/06/18 02:16:39;;;;;;;1.40;1.40;;;14.90;99.90;14.30;100678;;;;591967;239;24024;-82
2022/06/18 02:19:10;;;;;;;1.10;1.00;;;14.90;99.90;14.30;100672;;;;591681;239;24012;-83
2022/06/18 02:21:36;;;;;;;1.20;1.20;;;15.00;99.90;14.40;100673;;;;591221;239;23994;-83
2022/06/18 02:24:07;;;;;;;0.90;0.90;;;15.00;99.90;14.40;100670;;;;590777;239;23998;-81
2022/06/18 02:26:35;;;;;;;2.60;1.20;;;15.10;99.90;14.50;100660;;;;590814;239;23989;-82
2022/06/18 02:29:03;;;;;;;2.03;0.97;;;15.10;99.90;14.50;100658;;;;591264;239;24017;-82
2022/06/18 02:31:31;;;;;;;1.77;0.93;;;15.20;99.90;14.60;100666;;;;591235;239;24008;-82
2022/06/18 02:33:59;;;;;;;2.83;1.10;;;15.20;99.90;14.60;100663;;;;591091;239;24050;-81
2022/06/18 02:36:36;;;;;;;1.40;0.80;;;15.20;99.90;14.70;100657;;;;590944;239;23991;-82
2022/06/18 02:39:36;;;;;;;0.83;0.83;;;15.30;99.90;14.70;100660;;;;591138;239;23993;-82
2022/06/18 02:42:12;;;;;;;0.90;0.80;;;15.40;99.90;14.80;100658;;;;596389;239;24036;-83
2022/06/18 02:44:40;;;;;;;1.10;0.87;;;15.50;99.90;14.90;100654;;;;590721;239;24182;-82
2022/06/18 02:47:11;;;;;;;0.83;0.70;;;15.50;99.90;15.00;100656;;;;590474;239;24051;-82
2022/06/18 02:49:36;;;;;;;1.03;1.00;;;15.60;99.90;15.00;100653;;;;590305;239;24003;-82
2022/06/18 02:52:08;;;;;;;0.80;0.77;;;15.70;99.90;15.10;100653;;;;590035;239;24021;-83
2022/06/18 02:54:36;;;;;;;0.97;0.97;;;15.70;99.90;15.10;100655;;;;600235;237;24145;-81
2022/06/18 02:57:09;;;;;;;0.70;0.70;;;15.70;99.90;15.20;100663;;;;598145;239;24085;-81
2022/06/18 02:59:32;;;;;;;0.80;0.80;;;15.80;99.90;15.20;100658;;;;591647;239;24007;-81
2022/06/18 03:02:00;;;;;;;2.30;2.10;;;15.80;99.90;15.30;100658;;;;591322;239;24025;-83
2022/06/18 03:04:31;;;;;;;1.87;1.20;;;15.90;99.90;15.30;100651;;;;581872;243;24056;-81
2022/06/18 03:06:56;;;;;;;1.23;1.13;;;16.00;99.90;15.40;100652;;;;588183;239;24007;-81
2022/06/18 03:09:24;;;;;;;1.07;1.07;;;16.00;99.90;15.40;100655;;;;591583;239;24026;-82
2022/06/18 03:12:08;;;;;;;0.97;0.97;;;16.10;99.90;15.50;100648;;;;592102;239;24008;-82
2022/06/18 03:14:37;;;;;;;0.80;0.80;;;16.10;99.90;15.50;100653;;;;591947;239;24000;-81
2022/06/18 03:17:05;;;;;;;1.00;1.00;;;16.10;99.90;15.50;100651;;;;592303;239;23977;-81
2022/06/18 03:19:45;;;;;;;1.47;1.27;;;16.20;99.90;15.50;100654;;;;592697;239;24023;-81
2022/06/18 03:22:16;;;;;;;1.13;1.00;;;16.20;99.90;15.60;100655;;;;592322;239;24042;-82
2022/06/18 03:24:43;;;;;;;2.90;0.90;;;16.30;99.90;15.70;100651;;;;592538;239;24055;-82
2022/06/18 03:27:14;;;;;;;0.70;0.70;;;16.30;99.90;15.70;100656;;;;591153;239;24064;-81
2022/06/18 03:29:44;;;;;;;0.93;0.93;;;16.30;99.90;15.70;100651;;;;591965;239;24005;-81
2022/06/18 03:32:10;;;;;;;1.93;1.00;;;16.30;99.90;15.80;100650;;;;591684;239;24088;-82
2022/06/18 03:34:39;;;;;;;1.07;1.07;;;16.40;99.90;15.90;100649;;;;591324;239;24003;-83
2022/06/18 03:37:10;;;;;;;0.80;0.80;;;16.50;99.90;15.90;100647;;;;592476;239;23988;-87
2022/06/18 03:39:37;;;;;;;1.07;1.00;;;16.50;99.90;15.90;100649;;;;586956;244;24020;-83
2022/06/18 03:42:05;;;;;;;2.67;1.10;;;16.60;99.90;16.00;100650;;;;585564;244;24028;-82
2022/06/18 03:44:37;;;;;;;1.53;0.90;;;16.60;99.90;16.00;100654;;;;581216;243;24040;-83
2022/06/18 03:47:01;;;;;;;1.53;1.30;;;16.60;99.90;16.00;100650;;;;589031;240;24063;-83
2022/06/18 03:49:29;;;;;;;1.00;1.00;;;16.60;99.90;16.00;100655;;;;590071;240;24068;-85
2022/06/18 03:52:01;;;;;;;0.80;0.80;;;16.60;99.90;16.00;100658;;;;599322;239;24131;-83
2022/06/18 03:54:25;;;;;;;0.87;0.87;;;16.70;99.90;16.00;100655;;;;589968;240;24034;-82
2022/06/18 03:56:56;;;;;;;1.20;1.10;;;16.70;99.90;16.00;100656;;;;590311;240;24038;-84
2022/06/18 03:59:25;;;;;;;0.98;0.98;;;16.60;99.90;16.00;100655;;;;593788;239;34869;-83
2022/06/18 04:01:53;;;;;;;0.70;0.70;;;16.60;99.90;16.00;100654;;;;589774;240;24029;-83
2022/06/18 04:04:25;;;;;;;1.07;0.87;;;16.60;99.90;16.00;100662;;;;586628;244;24078;-86
2022/06/18 04:06:53;;;;;;;1.40;1.00;;;16.60;99.90;16.00;100662;;;;588074;241;24074;-84
2022/06/18 04:09:21;;;;;;;2.47;1.27;;;16.60;99.90;16.00;100655;;;;578296;245;24147;-81
2022/06/18 04:11:50;;;;;;;1.00;0.97;;;16.60;99.90;16.00;100657;;;;578080;245;24054;-85
2022/06/18 04:14:18;;;;;;;2.10;1.03;;;16.60;99.90;16.00;100649;;;;577907;245;24032;-85
2022/06/18 04:16:47;;;;;;;1.23;1.10;;;16.60;99.90;16.00;100648;;;;577293;245;24049;-83
2022/06/18 04:19:15;;;;;;;1.10;1.10;;;16.50;99.90;16.00;100652;;;;577588;245;24061;-84
2022/06/18 04:21:46;;;;;;;4.23;0.97;;;16.50;99.90;16.00;100652;;;;576749;245;24062;-85
2022/06/18 04:24:10;;;;;;;1.10;1.10;;;16.60;99.90;16.00;100648;;;;585184;239;24087;-82
2022/06/18 04:26:38;;;;;;;3.43;1.13;;;16.60;99.90;16.00;100650;;;;601500;237;24105;-84
2022/06/18 04:29:06;;;;;;;7.77;1.30;;;16.60;99.90;16.00;100643;;;;582703;241;24020;-84
2022/06/18 04:31:35;;;;;;;1.77;1.00;;;16.60;99.90;16.00;100636;;;;577866;245;24015;-83
2022/06/18 04:34:04;;;;;;;0.90;0.90;;;16.70;99.90;16.00;100631;;;;586522;241;24064;-83
2022/06/18 04:36:32;;;;;;;2.73;1.10;;;16.60;99.90;16.00;100631;;;;574520;246;24084;-83
2022/06/18 04:39:03;;;;;;;2.03;1.10;;;16.60;99.90;16.10;100627;;;;572410;248;24085;-83
2022/06/18 04:41:28;;;;;;;1.97;1.17;;;16.60;99.90;16.00;100623;;;;571804;248;24098;-83
2022/06/18 04:43:58;;;;;;;1.63;1.47;;;16.60;99.90;16.00;100623;;;;571702;248;24078;-83
2022/06/18 04:46:24;;;;;;;2.80;1.60;;;16.60;99.90;16.00;100634;;;;571428;248;24101;-82
2022/06/18 04:48:55;;;;;;;1.50;1.40;;;16.60;99.90;16.00;100640;;;;580525;247;24104;-82
2022/06/18 04:51:20;;;;;;;1.37;1.27;;;16.60;99.90;16.00;100641;;;;585343;245;24037;-84
2022/06/18 04:53:48;;;;;;;1.30;1.17;;;16.60;99.90;16.00;100644;;;;585563;244;24089;-82
2022/06/18 04:56:15;;;;;;;1.37;1.27;;;16.60;99.90;16.00;100639;;;;583489;245;24058;-83
2022/06/18 04:58:43;;;;;;;2.23;1.70;;;16.60;99.90;16.00;100630;;;;595361;242;24060;-84
2022/06/18 05:01:14;;;;;;;1.27;1.27;;;16.60;99.90;16.10;100630;;;;584914;246;24155;-82
2022/06/18 05:03:42;;;;;;;1.93;1.60;;;16.60;99.90;16.10;100626;;;;579208;247;24089;-83
2022/06/18 05:06:13;;;;;;;1.60;1.50;;;16.70;99.90;16.20;100621;;;;583461;246;24065;-84
2022/06/18 05:08:38;;;;;;;2.20;1.53;;;16.70;99.90;16.30;100613;;;;595348;242;24107;-84
2022/06/18 05:11:06;;;;;;;2.00;1.60;;;16.80;99.90;16.40;100615;;;;586801;245;24031;-84
2022/06/18 05:13:37;;;;;;;1.70;1.30;;;17.00;99.90;16.50;100606;;;;594838;241;24046;-84
2022/06/18 05:16:01;;;;;;;1.73;1.30;;;17.10;99.90;16.70;100599;;;;583208;246;24077;-84
2022/06/18 05:18:29;;;;;;;1.93;1.13;;;17.30;99.90;16.90;100592;;;;591949;241;24109;-83
2022/06/18 05:20:57;;;;;;;1.50;1.40;;;17.50;99.90;17.20;100604;;;;595205;241;24049;-82
2022/06/18 05:23:28;;;;;;;1.67;1.57;;;17.70;99.90;17.60;100602;;;;584002;246;24069;-84
2022/06/18 05:25:56;;;;;;;3.30;1.33;;;18.10;99.90;18.00;100601;;;;578836;247;24089;-83
2022/06/18 05:28:27;;;;;;;5.97;1.57;;;18.50;99.90;18.40;100608;;;;580816;247;24065;-84
2022/06/18 05:30:55;;;;;;;1.30;1.20;;;18.90;99.90;18.70;100596;;;;585441;245;24047;-83
2022/06/18 05:33:19;;;;;;;2.27;1.50;;;19.20;99.90;18.90;100587;;;;585281;245;24089;-83
2022/06/18 05:35:47;;;;;;;1.60;1.50;;;19.50;99.90;19.10;100591;;;;585490;244;24035;-84
2022/06/18 05:38:15;;;;;;;1.80;1.20;;;19.70;99.90;19.50;100586;;;;583021;245;24077;-84
2022/06/18 05:40:43;;;;;;;1.40;1.30;;;20.00;99.90;20.40;100582;;;;584420;243;24081;-83
2022/06/18 05:43:12;;;;;;;1.23;1.23;;;21.50;99.90;21.00;100587;;;;594975;238;24046;-83
2022/06/18 05:45:40;;;;;;;1.33;1.33;;;21.40;99.90;21.30;100587;;;;595082;241;23061;-82
2022/06/18 05:48:08;;;;;;;1.60;1.50;;;21.80;99.90;21.30;100581;;;;595971;238;24054;-83
2022/06/18 05:50:35;;;;;;;1.47;1.37;;;21.90;99.90;21.20;100592;;;;596899;238;24031;-83
2022/06/18 05:53:06;;;;;;;1.97;1.87;;;21.90;99.90;21.20;100598;;;;597794;238;24059;-82
2022/06/18 05:55:35;;;;;;;1.60;1.50;;;21.80;99.90;21.10;100600;;;;601644;238;23067;-82
2022/06/18 05:57:59;;;;;;;3.00;2.27;;;21.70;99.90;21.00;100589;;;;579319;248;23101;-84
2022/06/18 06:00:27;;;;;;;2.27;2.07;;;21.60;99.90;21.20;100582;;;;576348;249;23117;-83
2022/06/18 06:02:55;;;;;;;4.60;2.17;;;21.70;99.90;21.80;100577;;;;579654;247;24077;-83
2022/06/18 06:05:23;;;;;;;2.63;2.43;;;22.20;99.90;22.50;100568;;;;589816;241;23090;-82
2022/06/18 06:07:51;;;;;;;3.43;1.93;;;22.90;99.90;23.10;100570;;;;590448;243;24049;-82
2022/06/18 06:13:16;;;;;;;2.20;2.10;;;23.80;99.90;23.50;100554;;;;588686;243;24055;-82
2022/06/18 06:15:50;;;;;;;2.20;2.10;;;24.00;99.90;23.50;100553;;;;595113;238;24044;-82
2022/06/18 06:18:14;;;;;;;2.30;2.20;;;24.10;99.20;23.40;100545;;;;594738;241;24016;-82
2022/06/18 06:20:44;;;;;;;2.30;2.10;;;23.80;97.70;23.10;100540;;;;595282;241;24145;-83
2022/06/18 06:23:16;;;;;;;2.33;2.23;;;23.80;97.70;22.90;100537;;;;595270;241;24053;-83
2022/06/18 06:25:40;;;;;;;2.93;2.77;;;23.60;97.80;22.80;100535;;;;595074;241;24061;-82
2022/06/18 06:28:11;;;;;;;3.37;3.07;;;23.40;97.70;22.60;100529;;;;589403;239;24031;-81
2022/06/18 06:30:38;;;;;;;2.33;2.23;;;23.20;97.70;22.50;100529;;;;598091;237;23997;-83
2022/06/18 06:33:03;;;;;;;3.67;2.80;;;23.10;98.00;22.50;100524;;;;603021;238;24044;-81
2022/06/18 06:35:31;;;;;;;6.03;2.83;;;23.00;98.50;22.50;100522;;;;603085;238;24044;-81
2022/06/18 06:37:59;;;;;;;3.10;2.40;;;23.00;98.90;22.50;100514;;;;603093;238;24051;-81
2022/06/18 06:40:35;;;;;;;5.13;2.90;;;23.00;98.60;22.50;100514;;;;580411;246;24037;-80
2022/06/18 06:43:07;;;;;;;5.60;2.87;;;23.00;98.30;22.40;100514;;;;589350;241;24098;-83
2022/06/18 06:45:33;;;;;;;2.90;2.40;;;23.00;98.30;22.40;100509;;;;595015;241;24026;-80
2022/06/18 06:48:04;;;;;;;2.83;2.50;;;22.90;98.70;22.50;100509;;;;593902;241;24063;-83
2022/06/18 06:50:29;;;;;;;2.53;2.10;;;22.90;99.10;22.50;100504;;;;594464;241;24028;-84
2022/06/18 06:52:57;;;;;;;6.27;2.70;;;23.00;99.10;22.50;100500;;;;594530;241;24047;-82
2022/06/18 06:58:22;;;;;;;3.33;2.23;;;23.00;98.70;22.50;100492;;;;594401;241;24094;-80
2022/06/18 07:00:46;;;;;;;2.90;2.37;;;23.00;98.60;22.60;100486;;;;594891;241;24031;-82
2022/06/18 07:03:14;;;;;;;2.60;2.40;;;23.00;98.80;22.60;100483;;;;594943;241;24094;-81
2022/06/18 07:05:46;;;;;;;4.07;2.57;;;23.10;98.70;22.70;100482;;;;605326;237;24030;-82
2022/06/18 07:08:11;;;;;;;6.30;2.60;;;23.40;98.80;23.00;100476;;;;604879;235;24024;-82
2022/06/18 07:10:39;;;;;;;2.60;2.40;;;23.40;98.80;23.30;100473;;;;590790;243;24076;-82
2022/06/18 07:13:07;;;;;;;4.83;2.43;;;23.70;98.10;23.70;100461;;;;591000;243;24102;-82
2022/06/18 07:15:38;;;;;;;4.47;2.33;;;24.10;97.80;24.20;100463;;;;590832;243;24105;-82
2022/06/18 07:18:06;;;;;;;6.60;2.50;;;25.00;95.90;24.60;100450;;;;601089;238;24063;-82
2022/06/18 07:20:31;;;;;;;3.40;3.17;;;25.00;95.90;24.90;100443;;;;590971;243;24108;-82
2022/06/18 07:22:59;;;;;;;2.57;2.37;;;25.30;94.70;25.20;100451;;;;591210;243;24114;-82
2022/06/18 07:25:28;;;;;;;2.97;2.40;;;25.80;93.20;25.20;100446;;;;601903;238;24041;-82
2022/06/18 07:27:56;;;;;;;2.73;2.40;;;25.80;93.20;25.00;100445;;;;591175;243;23085;-83
2022/06/18 07:30:23;;;;;;;2.37;2.17;;;25.70;93.00;24.90;100444;;;;591270;243;24083;-82
2022/06/18 07:32:52;;;;;;;2.13;2.00;;;25.30;93.10;24.80;100443;;;;591375;240;24050;-82
2022/06/18 07:35:23;;;;;;;4.17;2.50;;;25.30;93.10;24.60;100429;;;;591480;243;23095;-83
2022/06/18 07:38:00;;;;;;;3.10;2.77;;;25.10;93.50;24.50;100434;;;;591242;243;24043;-80
2022/06/18 07:40:25;;;;;;;2.30;2.10;;;25.00;93.40;24.40;100437;;;;591612;241;23098;-82
2022/06/18 07:42:53;;;;;;;4.27;2.30;;;24.90;93.60;24.50;100440;;;;593135;242;24058;-81
2022/06/18 07:45:20;;;;;;;2.87;2.20;;;25.00;93.90;24.50;100434;;;;592894;239;24055;-81
2022/06/18 07:47:48;;;;;;;2.70;2.40;;;25.00;93.90;24.60;100427;;;;592284;242;24099;-82
2022/06/18 07:50:16;;;;;;;2.50;2.30;;;25.10;94.10;24.70;100423;;;;602702;238;24106;-84
2022/06/18 07:52:44;;;;;;;4.57;2.90;;;25.10;93.70;24.80;100422;;;;591946;243;24080;-81
2022/06/18 07:55:15;;;;;;;5.03;2.70;;;25.30;94.30;24.80;100421;;;;591794;240;24072;-79
2022/06/18 07:57:47;;;;;;;4.47;3.83;;;25.40;93.80;25.00;100427;;;;591702;240;23091;-80
2022/06/18 08:00:16;;;;;;;4.07;2.30;;;25.40;93.80;25.30;100424;;;;591027;243;23106;-81
2022/06/18 08:02:42;;;;;;;3.40;2.40;;;25.70;93.70;25.70;100421;;;;590885;240;24096;-81
2022/06/18 08:05:08;;;;;;;2.40;2.20;;;26.10;93.80;26.20;100420;;;;591127;243;23086;-82
2022/06/18 08:07:36;;;;;;;2.87;2.67;;;26.60;92.90;26.90;100421;;;;590909;243;23074;-81
2022/06/18 08:10:04;;;;;;;2.80;2.20;;;27.20;92.20;27.50;100425;;;;591031;243;24129;-84
2022/06/18 08:12:35;;;;;;;3.00;2.37;;;27.90;91.60;28.10;100407;;;;590884;240;23082;-84
2022/06/18 08:15:01;;;;;;;4.27;2.40;;;28.50;90.30;28.50;100406;;;;591123;243;23081;-83
2022/06/18 08:17:28;;;;;;;2.17;1.90;;;29.30;83.80;28.70;100399;;;;591290;243;23076;-83
2022/06/18 08:19:56;;;;;;;2.33;2.20;;;29.20;84.40;28.80;100402;;;;590594;240;23086;-85
2022/06/18 08:22:27;;;;;;;2.80;2.10;;;29.40;82.50;28.90;100398;;;;591065;240;23112;-83
2022/06/18 08:24:55;;;;;;;2.72;2.10;;;29.40;80.70;29.00;100400;;;;586287;243;35055;-82
2022/06/18 08:27:20;;;;;;;2.40;2.20;;;29.50;79.30;28.80;100392;;;;590545;243;24103;-84
2022/06/18 08:29:52;;;;;;;2.25;2.08;;;29.40;78.40;28.60;100396;;;;590913;243;23083;-84
2022/06/18 08:32:15;;;;;;;4.40;2.77;;;29.20;78.70;28.30;100385;;;;591354;243;23074;-83
2022/06/18 08:34:43;;;;;;;2.13;2.00;;;28.90;78.80;28.20;100395;;;;591525;243;24068;-84
2022/06/18 08:37:11;;;;;;;2.47;2.27;;;28.70;79.20;28.20;100390;;;;591607;240;23079;-83
2022/06/18 08:39:39;;;;;;;2.10;2.00;;;28.60;79.60;28.00;100392;;;;591612;243;24075;-83
2022/06/18 08:42:31;;;;;;;3.60;1.97;;;28.30;78.90;27.80;100387;;;;591617;240;23084;-84
2022/06/18 08:45:13;;;;;;;4.10;2.37;;;28.30;78.80;27.60;100387;;;;590602;243;23099;-83
2022/06/18 08:47:53;;;;;;;3.07;2.07;;;28.10;79.70;27.90;100385;;;;590553;240;24113;-86
2022/06/18 08:50:42;;;;;;;2.20;1.80;;;28.30;80.50;28.20;100377;;;;590054;243;23072;-82
2022/06/18 08:53:32;;;;;;;6.43;2.30;;;29.10;77.80;28.90;100368;;;;592053;241;23096;-81
2022/06/18 08:56:05;;;;;;;4.00;2.10;;;29.10;77.70;29.30;100370;;;;592673;239;24099;-82
2022/06/18 08:59:01;;;;;;;1.90;1.80;;;29.60;75.30;29.70;100366;;;;589565;242;23095;-82
2022/06/18 09:01:31;;;;;;;3.10;1.90;;;30.00;74.30;30.00;100360;;;;585799;245;24051;-83
2022/06/18 09:04:20;;;;;;;1.95;1.85;;;30.40;71.10;30.30;100356;;;;580131;245;24068;-85
2022/06/18 09:07:21;;;;;;;4.97;2.83;;;30.70;69.40;30.40;100349;;;;598941;238;23041;-82
2022/06/18 09:10:06;;;;;;;2.45;2.35;;;30.90;68.30;30.40;100352;;;;602187;238;23074;-82
2022/06/18 09:12:46;;;;;;;4.95;2.67;;;30.90;67.70;30.10;100346;;;;602786;238;23075;-81
2022/06/18 09:15:25;;;;;;;4.95;2.83;;;30.70;66.40;30.00;100343;;;;590453;243;23109;-81
2022/06/18 09:17:56;;;;;;;3.60;1.90;;;30.50;67.20;29.80;100342;;;;591161;243;23086;-81
2022/06/18 09:20:26;;;;;;;4.07;1.83;;;30.30;66.00;29.70;100339;;;;590741;243;23098;-82
2022/06/18 09:22:57;;;;;;;4.50;2.10;;;30.20;66.90;29.80;100336;;;;602201;238;23042;-81
2022/06/18 09:25:27;;;;;;;2.58;1.90;;;30.20;66.70;29.90;100325;;;;589468;244;23095;-81
2022/06/18 09:28:04;;;;;;;2.15;1.70;;;30.30;66.90;29.90;100321;;;;589391;244;23107;-82
2022/06/18 09:30:44;;;;;;;2.60;1.80;;;30.30;65.30;29.60;100319;;;;589359;244;23090;-81
2022/06/18 09:33:39;;;;;;;1.80;1.70;;;30.10;65.00;29.40;100319;;;;589336;244;23131;-82
2022/06/18 09:36:07;;;;;;;2.85;2.00;;;29.90;65.90;29.20;100312;;;;589421;244;23096;-82
2022/06/18 09:38:40;;;;;;;2.00;1.70;;;29.70;65.80;29.10;100301;;;;587922;241;23087;-83
2022/06/18 09:41:08;;;;;;;3.95;1.77;;;29.60;63.80;29.10;100302;;;;588494;244;24101;-82
2022/06/18 09:43:51;;;;;;;6.00;1.77;;;29.50;64.10;29.30;100306;;;;587812;244;23120;-82
2022/06/18 09:46:22;;;;;;;3.25;1.85;;;29.60;64.50;29.90;100307;;;;583730;244;35084;-82
2022/06/18 09:48:50;;;;;;;2.03;1.80;;;30.20;65.40;30.70;100303;;;;588503;241;24066;-82
2022/06/18 09:51:39;;;;;;;2.62;1.85;;;30.90;64.40;31.90;100305;;;;588977;244;23181;-82
2022/06/18 09:54:07;;;;;;;2.42;1.55;;;33.20;59.10;32.80;100295;;;;588377;243;23110;-83
2022/06/18 09:56:37;;;;;;;2.87;1.60;;;33.10;59.00;33.40;100284;;;;588709;244;23091;-82
2022/06/18 09:59:05;;;;;;;6.47;1.60;;;33.80;57.60;33.50;100285;;;;588491;244;23123;-81
2022/06/18 10:01:36;;;;;;;2.55;1.60;;;34.00;56.20;33.40;100282;;;;588603;244;24157;-81
2022/06/18 10:06:55;;;;;;;4.68;1.90;;;33.70;54.40;32.70;100273;;;;590251;243;23121;-83
2022/06/18 10:09:21;;;;;;;2.17;1.60;;;33.40;54.60;32.30;100266;;;;589737;243;23079;-82
2022/06/18 10:11:49;;;;;;;2.03;1.83;;;33.00;54.90;31.90;100274;;;;589324;243;23098;-84
2022/06/18 10:14:20;;;;;;;2.25;1.75;;;32.50;55.50;31.40;100275;;;;589707;243;23176;-81
2022/06/18 10:17:12;;;;;;;2.47;1.67;;;32.00;56.00;30.90;100268;;;;589646;243;23094;-82
2022/06/18 10:19:51;;;;;;;1.85;1.60;;;31.50;56.70;30.40;100261;;;;590058;243;23191;-81
2022/06/18 10:23:09;;;;;;;3.95;2.17;;;31.00;57.90;29.80;100261;;;;589674;243;24159;-82
2022/06/18 10:25:50;;;;;;;3.12;1.25;;;30.50;58.50;29.30;100256;;;;589686;244;23192;-82
2022/06/18 10:28:53;;;;;;;2.05;1.95;;;29.50;60.50;29.10;100251;;;;589439;244;23106;-81
2022/06/18 10:31:32;;;;;;;1.80;1.70;;;29.50;60.50;29.00;100260;;;;589676;241;23087;-82
2022/06/18 10:34:19;;;;;;;2.13;1.70;;;29.40;60.90;29.00;100253;;;;589384;244;23113;-83
2022/06/18 10:37:05;;;;;;;2.87;1.80;;;29.30;60.70;29.10;100254;;;;588779;244;23110;-82
2022/06/18 10:39:48;;;;;;;2.67;1.60;;;29.50;61.00;29.40;100255;;;;589169;243;23105;-83
2022/06/18 10:42:21;;;;;;;3.30;1.75;;;29.70;60.80;29.60;100244;;;;583779;244;35051;-82
2022/06/18 10:44:58;;;;;;;3.67;1.83;;;30.00;60.20;29.70;100231;;;;588586;244;23102;-83
2022/06/18 10:47:32;;;;;;;2.58;1.65;;;30.00;60.20;29.80;100239;;;;587341;241;23079;-82
2022/06/18 10:50:02;;;;;;;3.45;1.83;;;30.20;59.50;30.00;100232;;;;585083;244;23079;-82
2022/06/18 10:52:28;;;;;;;2.28;1.67;;;30.30;59.80;30.30;100217;;;;589086;244;23086;-82
2022/06/18 10:55:14;;;;;;;9.30;1.83;;;30.60;60.60;30.40;100211;;;;589279;244;23089;-83
2022/06/18 10:57:46;;;;;;;1.65;1.50;;;30.80;59.00;30.60;100223;;;;589356;244;23110;-83
2022/06/18 11:00:10;;;;;;;4.87;1.75;;;30.90;58.10;30.80;100217;;;;589553;243;23086;-81
2022/06/18 11:02:39;;;;;;;1.60;1.50;;;31.20;57.70;31.20;100211;;;;589475;244;23099;-81
2022/06/18 11:05:30;;;;;;;3.12;1.70;;;31.60;58.20;31.70;100209;;;;589513;244;23135;-81
2022/06/18 11:08:01;;;;;;;6.05;1.60;;;32.10;57.20;32.00;100217;;;;589665;244;23087;-82
2022/06/18 11:10:32;;;;;;;5.20;1.60;;;32.40;56.80;32.50;100215;;;;589504;240;23076;-84
2022/06/18 11:13:04;;;;;;;3.70;1.92;;;32.80;56.40;32.80;100202;;;;590085;241;23084;-82
2022/06/18 11:15:40;;;;;;;2.45;1.58;;;33.20;55.80;33.10;100203;;;;589941;242;23109;-84
2022/06/18 11:18:19;;;;;;;3.60;2.03;;;33.40;54.80;33.20;100209;;;;590680;243;24077;-85
2022/06/18 11:21:04;;;;;;;2.62;1.55;;;33.70;54.00;33.50;100209;;;;590378;243;23087;-85
2022/06/18 11:23:30;;;;;;;2.95;2.10;;;33.90;54.50;33.70;100204;;;;580985;243;24192;-85
2022/06/18 11:26:00;;;;;;;3.22;1.80;;;34.10;54.30;33.80;100212;;;;589954;243;23143;-83
2022/06/18 11:28:39;;;;;;;2.40;1.67;;;34.30;53.80;33.60;100207;;;;592711;240;23097;-84
2022/06/18 11:31:08;;;;;;;3.20;2.67;;;34.10;53.10;33.50;100205;;;;592880;242;23138;-81
2022/06/18 11:33:38;;;;;;;2.90;1.67;;;34.00;53.50;33.50;100201;;;;592384;239;23083;-81
2022/06/18 11:36:15;;;;;;;3.65;1.98;;;33.90;53.60;33.40;100194;;;;591707;243;23074;-82
2022/06/18 11:38:52;;;;;;;5.87;1.52;;;33.90;52.40;33.00;100184;;;;591865;243;23083;-81
2022/06/18 11:41:34;;;;;;;1.92;1.70;;;33.60;51.60;32.70;100194;;;;591282;243;23137;-83